sensor_id;sensor_type;location;lat;lon;timestamp;P1;durP1;ratioP1;P2;durP2;ratioP2
59649;SDS011;46162;57.568;25.814;2023-03-13T00:01:32;2.88;;;0.10;;
59649;SDS011;46162;57.568;25.814;2023-03-13T00:04:02;1.58;;;0.10;;
59649;SDS011;46162;57.568;25.814;2023-03-13T00:06:33;0.75;;;0.00;;
59649;SDS011;46162;57.568;25.814;2023-03-13T00:09:04;1.00;;;0.00;;
59649;SDS011;46162;57.568;25.814;2023-03-13T00:11:34;2.75;;;0.00;;
59649;SDS011;46162;57.568;25.814;2023-03-13T00:14:05;5.80;;;0.22;;
59649;SDS011;46162;57.568;25.814;2023-03-13T00:16:34;6.10;;;0.10;;
59649;SDS011;46162;57.568;25.814;2023-03-13T00:19:05;5.97;;;0.10;;
59649;SDS011;46162;57.568;25.814;2023-03-13T00:21:35;1.80;;;0.05;;
59649;SDS011;46162;57.568;25.814;2023-03-13T00:24:08;2.75;;;0.00;;
59649;SDS011;46162;57.568;25.814;2023-03-13T00:26:38;3.83;;;0.00;;
59649;SDS011;46162;57.568;25.814;2023-03-13T00:29:09;1.73;;;0.00;;
59649;SDS011;46162;57.568;25.814;2023-03-13T00:31:37;0.98;;;0.00;;
59649;SDS011;46162;57.568;25.814;2023-03-13T00:34:07;2.40;;;0.10;;
59649;SDS011;46162;57.568;25.814;2023-03-13T00:36:37;0.35;;;0.00;;
59649;SDS011;46162;57.568;25.814;2023-03-13T00:39:05;2.30;;;0.00;;
59649;SDS011;46162;57.568;25.814;2023-03-13T00:41:34;2.10;;;0.00;;
59649;SDS011;46162;57.568;25.814;2023-03-13T00:44:05;1.13;;;0.00;;
59649;SDS011;46162;57.568;25.814;2023-03-13T00:46:36;2.15;;;0.00;;
59649;SDS011;46162;57.568;25.814;2023-03-13T00:49:05;6.38;;;0.30;;
59649;SDS011;46162;57.568;25.814;2023-03-13T00:51:34;1.98;;;0.00;;
59649;SDS011;46162;57.568;25.814;2023-03-13T00:54:03;3.20;;;0.00;;
59649;SDS011;46162;57.568;25.814;2023-03-13T00:56:32;4.85;;;0.20;;
59649;SDS011;46162;57.568;25.814;2023-03-13T00:59:01;3.67;;;0.00;;
59649;SDS011;46162;57.568;25.814;2023-03-13T01:01:30;1.95;;;0.00;;
59649;SDS011;46162;57.568;25.814;2023-03-13T01:04:03;1.65;;;0.10;;
59649;SDS011;46162;57.568;25.814;2023-03-13T01:06:34;1.00;;;0.00;;
59649;SDS011;46162;57.568;25.814;2023-03-13T01:09:05;4.18;;;0.00;;
59649;SDS011;46162;57.568;25.814;2023-03-13T01:11:35;2.20;;;0.00;;
59649;SDS011;46162;57.568;25.814;2023-03-13T01:14:06;2.35;;;0.10;;
59649;SDS011;46162;57.568;25.814;2023-03-13T01:16:38;2.33;;;0.03;;
59649;SDS011;46162;57.568;25.814;2023-03-13T01:19:10;1.17;;;0.00;;
59649;SDS011;46162;57.568;25.814;2023-03-13T01:21:41;3.95;;;0.10;;
59649;SDS011;46162;57.568;25.814;2023-03-13T01:26:42;2.85;;;0.10;;
59649;SDS011;46162;57.568;25.814;2023-03-13T01:29:11;4.32;;;0.00;;
59649;SDS011;46162;57.568;25.814;2023-03-13T01:31:40;2.88;;;0.10;;
59649;SDS011;46162;57.568;25.814;2023-03-13T01:34:11;2.75;;;0.00;;
59649;SDS011;46162;57.568;25.814;2023-03-13T01:36:40;2.85;;;0.17;;
59649;SDS011;46162;57.568;25.814;2023-03-13T01:39:09;3.20;;;0.10;;
59649;SDS011;46162;57.568;25.814;2023-03-13T01:41:38;5.32;;;0.10;;
59649;SDS011;46162;57.568;25.814;2023-03-13T01:44:11;3.83;;;0.43;;
59649;SDS011;46162;57.568;25.814;2023-03-13T01:46:49;4.93;;;0.52;;
59649;SDS011;46162;57.568;25.814;2023-03-13T01:49:26;4.38;;;0.47;;
59649;SDS011;46162;57.568;25.814;2023-03-13T01:52:19;4.60;;;0.30;;
59649;SDS011;46162;57.568;25.814;2023-03-13T01:55:04;3.40;;;0.30;;
59649;SDS011;46162;57.568;25.814;2023-03-13T01:57:40;3.97;;;0.50;;
59649;SDS011;46162;57.568;25.814;2023-03-13T02:00:12;4.70;;;0.52;;
59649;SDS011;46162;57.568;25.814;2023-03-13T02:05:15;5.90;;;0.68;;
59649;SDS011;46162;57.568;25.814;2023-03-13T02:07:48;5.70;;;0.77;;
59649;SDS011;46162;57.568;25.814;2023-03-13T02:10:21;5.25;;;1.23;;
59649;SDS011;46162;57.568;25.814;2023-03-13T02:12:55;6.80;;;1.75;;
59649;SDS011;46162;57.568;25.814;2023-03-13T02:15:25;9.27;;;2.03;;
59649;SDS011;46162;57.568;25.814;2023-03-13T02:17:55;9.88;;;1.63;;
59649;SDS011;46162;57.568;25.814;2023-03-13T02:20:27;8.90;;;2.17;;
59649;SDS011;46162;57.568;25.814;2023-03-13T02:22:57;5.07;;;1.35;;
59649;SDS011;46162;57.568;25.814;2023-03-13T02:25:37;6.55;;;1.73;;
59649;SDS011;46162;57.568;25.814;2023-03-13T02:28:12;7.25;;;1.90;;
59649;SDS011;46162;57.568;25.814;2023-03-13T02:30:45;7.32;;;1.65;;
59649;SDS011;46162;57.568;25.814;2023-03-13T02:33:16;7.93;;;2.17;;
59649;SDS011;46162;57.568;25.814;2023-03-13T02:38:19;7.03;;;2.13;;
59649;SDS011;46162;57.568;25.814;2023-03-13T02:40:53;8.15;;;2.17;;
59649;SDS011;46162;57.568;25.814;2023-03-13T02:43:26;9.98;;;2.38;;
59649;SDS011;46162;57.568;25.814;2023-03-13T02:46:03;8.63;;;2.10;;
59649;SDS011;46162;57.568;25.814;2023-03-13T02:48:38;10.55;;;2.67;;
59649;SDS011;46162;57.568;25.814;2023-03-13T02:53:40;8.32;;;2.13;;
59649;SDS011;46162;57.568;25.814;2023-03-13T02:56:12;8.98;;;1.88;;
59649;SDS011;46162;57.568;25.814;2023-03-13T02:58:45;5.40;;;1.70;;
59649;SDS011;46162;57.568;25.814;2023-03-13T03:01:19;4.57;;;1.58;;
59649;SDS011;46162;57.568;25.814;2023-03-13T03:03:48;9.20;;;1.80;;
59649;SDS011;46162;57.568;25.814;2023-03-13T03:06:17;4.88;;;1.55;;
59649;SDS011;46162;57.568;25.814;2023-03-13T03:08:47;9.90;;;2.13;;
59649;SDS011;46162;57.568;25.814;2023-03-13T03:11:18;6.85;;;2.00;;
59649;SDS011;46162;57.568;25.814;2023-03-13T03:13:52;7.07;;;1.15;;
59649;SDS011;46162;57.568;25.814;2023-03-13T03:16:22;5.20;;;1.42;;
59649;SDS011;46162;57.568;25.814;2023-03-13T03:18:51;7.72;;;1.30;;
59649;SDS011;46162;57.568;25.814;2023-03-13T03:21:20;6.63;;;1.27;;
59649;SDS011;46162;57.568;25.814;2023-03-13T03:23:50;8.35;;;1.25;;
59649;SDS011;46162;57.568;25.814;2023-03-13T03:26:20;8.93;;;1.17;;
59649;SDS011;46162;57.568;25.814;2023-03-13T03:28:50;7.57;;;1.23;;
59649;SDS011;46162;57.568;25.814;2023-03-13T03:31:19;6.90;;;1.20;;
59649;SDS011;46162;57.568;25.814;2023-03-13T03:33:48;7.00;;;1.30;;
59649;SDS011;46162;57.568;25.814;2023-03-13T03:36:19;7.07;;;1.25;;
59649;SDS011;46162;57.568;25.814;2023-03-13T03:38:50;8.23;;;1.13;;
59649;SDS011;46162;57.568;25.814;2023-03-13T03:41:25;8.02;;;0.95;;
59649;SDS011;46162;57.568;25.814;2023-03-13T03:43:54;8.70;;;0.80;;
59649;SDS011;46162;57.568;25.814;2023-03-13T03:46:28;6.13;;;0.50;;
59649;SDS011;46162;57.568;25.814;2023-03-13T03:48:57;7.32;;;1.08;;
59649;SDS011;46162;57.568;25.814;2023-03-13T03:51:26;7.45;;;0.65;;
59649;SDS011;46162;57.568;25.814;2023-03-13T03:53:55;7.28;;;0.50;;
59649;SDS011;46162;57.568;25.814;2023-03-13T03:56:25;9.93;;;0.95;;
59649;SDS011;46162;57.568;25.814;2023-03-13T03:58:56;4.38;;;0.50;;
59649;SDS011;46162;57.568;25.814;2023-03-13T04:01:39;3.33;;;0.68;;
59649;SDS011;46162;57.568;25.814;2023-03-13T04:04:09;5.50;;;0.55;;
59649;SDS011;46162;57.568;25.814;2023-03-13T04:06:41;5.20;;;0.82;;
59649;SDS011;46162;57.568;25.814;2023-03-13T04:09:10;3.92;;;0.50;;
59649;SDS011;46162;57.568;25.814;2023-03-13T04:11:40;6.57;;;0.47;;
59649;SDS011;46162;57.568;25.814;2023-03-13T04:14:10;2.97;;;0.25;;
59649;SDS011;46162;57.568;25.814;2023-03-13T04:16:39;6.60;;;0.43;;
59649;SDS011;46162;57.568;25.814;2023-03-13T04:19:09;3.60;;;0.30;;
59649;SDS011;46162;57.568;25.814;2023-03-13T04:21:38;2.65;;;0.35;;
59649;SDS011;46162;57.568;25.814;2023-03-13T04:24:11;5.65;;;0.50;;
59649;SDS011;46162;57.568;25.814;2023-03-13T04:26:43;5.25;;;0.22;;
59649;SDS011;46162;57.568;25.814;2023-03-13T04:29:13;5.88;;;0.38;;
59649;SDS011;46162;57.568;25.814;2023-03-13T04:31:50;2.72;;;0.30;;
59649;SDS011;46162;57.568;25.814;2023-03-13T04:34:19;3.35;;;0.28;;
59649;SDS011;46162;57.568;25.814;2023-03-13T04:36:54;3.83;;;0.30;;
59649;SDS011;46162;57.568;25.814;2023-03-13T04:40:01;3.95;;;0.60;;
59649;SDS011;46162;57.568;25.814;2023-03-13T04:42:42;5.00;;;0.30;;
59649;SDS011;46162;57.568;25.814;2023-03-13T04:45:34;2.30;;;0.30;;
59649;SDS011;46162;57.568;25.814;2023-03-13T04:48:23;5.50;;;0.28;;
59649;SDS011;46162;57.568;25.814;2023-03-13T04:51:24;2.28;;;0.35;;
59649;SDS011;46162;57.568;25.814;2023-03-13T04:54:28;5.10;;;0.45;;
59649;SDS011;46162;57.568;25.814;2023-03-13T04:57:20;5.00;;;0.40;;
59649;SDS011;46162;57.568;25.814;2023-03-13T04:59:55;2.38;;;0.30;;
59649;SDS011;46162;57.568;25.814;2023-03-13T05:02:57;4.93;;;0.20;;
59649;SDS011;46162;57.568;25.814;2023-03-13T05:05:45;2.42;;;0.10;;
59649;SDS011;46162;57.568;25.814;2023-03-13T05:08:21;3.08;;;0.30;;
59649;SDS011;46162;57.568;25.814;2023-03-13T05:11:03;3.33;;;0.20;;
59649;SDS011;46162;57.568;25.814;2023-03-13T05:13:55;2.58;;;0.10;;
59649;SDS011;46162;57.568;25.814;2023-03-13T05:17:04;4.50;;;0.20;;
59649;SDS011;46162;57.568;25.814;2023-03-13T05:19:53;1.75;;;0.10;;
59649;SDS011;46162;57.568;25.814;2023-03-13T05:22:35;2.33;;;0.10;;
59649;SDS011;46162;57.568;25.814;2023-03-13T05:25:10;3.22;;;0.30;;
59649;SDS011;46162;57.568;25.814;2023-03-13T05:27:38;3.35;;;0.20;;
59649;SDS011;46162;57.568;25.814;2023-03-13T05:30:46;8.38;;;1.73;;
59649;SDS011;46162;57.568;25.814;2023-03-13T05:33:35;5.63;;;0.95;;
59649;SDS011;46162;57.568;25.814;2023-03-13T05:36:24;3.55;;;0.40;;
59649;SDS011;46162;57.568;25.814;2023-03-13T05:39:12;2.45;;;0.20;;
59649;SDS011;46162;57.568;25.814;2023-03-13T05:41:47;2.13;;;0.10;;
59649;SDS011;46162;57.568;25.814;2023-03-13T05:44:36;3.25;;;0.10;;
59649;SDS011;46162;57.568;25.814;2023-03-13T05:47:34;3.25;;;0.20;;
59649;SDS011;46162;57.568;25.814;2023-03-13T05:50:23;2.40;;;0.10;;
59649;SDS011;46162;57.568;25.814;2023-03-13T05:55:36;2.97;;;0.10;;
59649;SDS011;46162;57.568;25.814;2023-03-13T05:58:19;1.50;;;0.10;;
59649;SDS011;46162;57.568;25.814;2023-03-13T06:01:23;2.70;;;0.10;;
59649;SDS011;46162;57.568;25.814;2023-03-13T06:04:04;4.38;;;0.15;;
59649;SDS011;46162;57.568;25.814;2023-03-13T06:06:36;2.20;;;0.10;;
59649;SDS011;46162;57.568;25.814;2023-03-13T06:09:06;4.57;;;0.22;;
59649;SDS011;46162;57.568;25.814;2023-03-13T06:14:05;2.78;;;0.10;;
59649;SDS011;46162;57.568;25.814;2023-03-13T06:16:39;3.25;;;0.15;;
59649;SDS011;46162;57.568;25.814;2023-03-13T06:19:21;4.40;;;0.32;;
59649;SDS011;46162;57.568;25.814;2023-03-13T06:21:52;3.30;;;0.30;;
59649;SDS011;46162;57.568;25.814;2023-03-13T06:24:21;4.85;;;0.25;;
59649;SDS011;46162;57.568;25.814;2023-03-13T06:26:50;3.00;;;0.10;;
59649;SDS011;46162;57.568;25.814;2023-03-13T06:29:19;7.95;;;0.35;;
59649;SDS011;46162;57.568;25.814;2023-03-13T06:31:49;2.30;;;0.10;;
59649;SDS011;46162;57.568;25.814;2023-03-13T06:34:19;3.72;;;0.20;;
59649;SDS011;46162;57.568;25.814;2023-03-13T06:36:48;3.55;;;0.20;;
59649;SDS011;46162;57.568;25.814;2023-03-13T06:39:18;3.00;;;0.20;;
59649;SDS011;46162;57.568;25.814;2023-03-13T06:41:47;8.43;;;0.30;;
59649;SDS011;46162;57.568;25.814;2023-03-13T06:44:16;1.92;;;0.15;;
59649;SDS011;46162;57.568;25.814;2023-03-13T06:46:44;2.78;;;0.10;;
59649;SDS011;46162;57.568;25.814;2023-03-13T06:49:13;3.28;;;0.10;;
59649;SDS011;46162;57.568;25.814;2023-03-13T06:51:42;3.33;;;0.20;;
59649;SDS011;46162;57.568;25.814;2023-03-13T06:54:11;2.75;;;0.10;;
59649;SDS011;46162;57.568;25.814;2023-03-13T06:59:15;3.83;;;0.10;;
59649;SDS011;46162;57.568;25.814;2023-03-13T07:01:45;3.30;;;0.20;;
59649;SDS011;46162;57.568;25.814;2023-03-13T07:04:14;5.47;;;0.10;;
59649;SDS011;46162;57.568;25.814;2023-03-13T07:06:43;3.10;;;0.20;;
59649;SDS011;46162;57.568;25.814;2023-03-13T07:09:11;3.30;;;0.10;;
59649;SDS011;46162;57.568;25.814;2023-03-13T07:11:40;3.28;;;0.22;;
59649;SDS011;46162;57.568;25.814;2023-03-13T07:14:11;4.57;;;0.20;;
59649;SDS011;46162;57.568;25.814;2023-03-13T07:16:43;3.70;;;0.20;;
59649;SDS011;46162;57.568;25.814;2023-03-13T07:19:12;4.00;;;0.20;;
59649;SDS011;46162;57.568;25.814;2023-03-13T07:21:42;3.17;;;0.10;;
59649;SDS011;46162;57.568;25.814;2023-03-13T07:24:12;5.45;;;0.20;;
59649;SDS011;46162;57.568;25.814;2023-03-13T07:26:41;3.50;;;0.20;;
59649;SDS011;46162;57.568;25.814;2023-03-13T07:29:31;5.07;;;0.20;;
59649;SDS011;46162;57.568;25.814;2023-03-13T07:32:01;3.58;;;0.30;;
59649;SDS011;46162;57.568;25.814;2023-03-13T07:34:30;5.53;;;0.40;;
59649;SDS011;46162;57.568;25.814;2023-03-13T07:36:59;2.22;;;0.20;;
59649;SDS011;46162;57.568;25.814;2023-03-13T07:39:27;4.70;;;0.20;;
59649;SDS011;46162;57.568;25.814;2023-03-13T07:41:56;6.28;;;0.28;;
59649;SDS011;46162;57.568;25.814;2023-03-13T07:44:25;3.15;;;0.20;;
59649;SDS011;46162;57.568;25.814;2023-03-13T07:46:57;6.53;;;0.43;;
59649;SDS011;46162;57.568;25.814;2023-03-13T07:49:27;5.85;;;0.30;;
59649;SDS011;46162;57.568;25.814;2023-03-13T07:51:55;3.92;;;0.20;;
59649;SDS011;46162;57.568;25.814;2023-03-13T07:54:24;1.83;;;0.30;;
59649;SDS011;46162;57.568;25.814;2023-03-13T07:56:53;5.78;;;0.20;;
59649;SDS011;46162;57.568;25.814;2023-03-13T07:59:22;5.68;;;0.40;;
59649;SDS011;46162;57.568;25.814;2023-03-13T08:01:51;2.70;;;0.10;;
59649;SDS011;46162;57.568;25.814;2023-03-13T08:04:21;3.65;;;0.20;;
59649;SDS011;46162;57.568;25.814;2023-03-13T08:06:50;4.47;;;0.20;;
59649;SDS011;46162;57.568;25.814;2023-03-13T08:09:20;6.18;;;0.40;;
59649;SDS011;46162;57.568;25.814;2023-03-13T08:11:50;4.35;;;0.35;;
59649;SDS011;46162;57.568;25.814;2023-03-13T08:14:19;5.22;;;0.25;;
59649;SDS011;46162;57.568;25.814;2023-03-13T08:16:47;4.18;;;0.28;;
59649;SDS011;46162;57.568;25.814;2023-03-13T08:19:16;3.85;;;0.30;;
59649;SDS011;46162;57.568;25.814;2023-03-13T08:21:47;3.95;;;0.20;;
59649;SDS011;46162;57.568;25.814;2023-03-13T08:24:16;3.42;;;0.30;;
59649;SDS011;46162;57.568;25.814;2023-03-13T08:26:44;6.43;;;0.20;;
59649;SDS011;46162;57.568;25.814;2023-03-13T08:29:13;3.85;;;0.30;;
59649;SDS011;46162;57.568;25.814;2023-03-13T08:31:43;3.10;;;0.22;;
59649;SDS011;46162;57.568;25.814;2023-03-13T08:34:14;2.83;;;0.10;;
59649;SDS011;46162;57.568;25.814;2023-03-13T08:36:44;4.28;;;0.22;;
59649;SDS011;46162;57.568;25.814;2023-03-13T08:39:15;3.92;;;0.20;;
59649;SDS011;46162;57.568;25.814;2023-03-13T08:41:45;4.22;;;0.40;;
59649;SDS011;46162;57.568;25.814;2023-03-13T08:44:14;2.92;;;0.10;;
59649;SDS011;46162;57.568;25.814;2023-03-13T08:46:47;4.72;;;0.20;;
59649;SDS011;46162;57.568;25.814;2023-03-13T08:49:16;4.53;;;0.20;;
59649;SDS011;46162;57.568;25.814;2023-03-13T08:51:45;3.00;;;0.17;;
59649;SDS011;46162;57.568;25.814;2023-03-13T08:54:16;4.53;;;0.10;;
59649;SDS011;46162;57.568;25.814;2023-03-13T08:56:44;7.00;;;0.23;;
59649;SDS011;46162;57.568;25.814;2023-03-13T08:59:13;7.47;;;0.30;;
59649;SDS011;46162;57.568;25.814;2023-03-13T09:01:42;5.78;;;0.45;;
59649;SDS011;46162;57.568;25.814;2023-03-13T09:04:11;7.07;;;0.40;;
59649;SDS011;46162;57.568;25.814;2023-03-13T09:06:40;6.45;;;0.43;;
59649;SDS011;46162;57.568;25.814;2023-03-13T09:09:09;3.67;;;0.10;;
59649;SDS011;46162;57.568;25.814;2023-03-13T09:11:41;5.13;;;0.22;;
59649;SDS011;46162;57.568;25.814;2023-03-13T09:14:10;4.72;;;0.20;;
59649;SDS011;46162;57.568;25.814;2023-03-13T09:16:39;8.40;;;0.28;;
59649;SDS011;46162;57.568;25.814;2023-03-13T09:19:08;6.05;;;0.20;;
59649;SDS011;46162;57.568;25.814;2023-03-13T09:21:37;4.38;;;0.30;;
59649;SDS011;46162;57.568;25.814;2023-03-13T09:24:07;7.07;;;0.30;;
59649;SDS011;46162;57.568;25.814;2023-03-13T09:26:35;2.92;;;0.10;;
59649;SDS011;46162;57.568;25.814;2023-03-13T09:29:13;5.45;;;0.25;;
59649;SDS011;46162;57.568;25.814;2023-03-13T09:31:43;3.85;;;0.20;;
59649;SDS011;46162;57.568;25.814;2023-03-13T09:34:12;6.68;;;0.20;;
59649;SDS011;46162;57.568;25.814;2023-03-13T09:36:41;7.28;;;0.38;;
59649;SDS011;46162;57.568;25.814;2023-03-13T09:39:10;3.33;;;0.13;;
59649;SDS011;46162;57.568;25.814;2023-03-13T09:41:42;8.07;;;0.43;;
59649;SDS011;46162;57.568;25.814;2023-03-13T09:44:20;5.47;;;0.30;;
59649;SDS011;46162;57.568;25.814;2023-03-13T09:46:56;7.60;;;0.32;;
59649;SDS011;46162;57.568;25.814;2023-03-13T09:49:30;6.32;;;0.15;;
59649;SDS011;46162;57.568;25.814;2023-03-13T09:52:04;4.80;;;0.20;;
59649;SDS011;46162;57.568;25.814;2023-03-13T09:54:42;8.32;;;0.43;;
59649;SDS011;46162;57.568;25.814;2023-03-13T09:57:22;5.10;;;0.50;;
59649;SDS011;46162;57.568;25.814;2023-03-13T10:00:01;7.90;;;0.20;;
59649;SDS011;46162;57.568;25.814;2023-03-13T10:02:38;6.28;;;0.40;;
59649;SDS011;46162;57.568;25.814;2023-03-13T10:05:13;9.27;;;0.70;;
59649;SDS011;46162;57.568;25.814;2023-03-13T10:07:45;7.43;;;0.40;;
59649;SDS011;46162;57.568;25.814;2023-03-13T10:10:14;8.30;;;0.30;;
59649;SDS011;46162;57.568;25.814;2023-03-13T10:12:45;9.93;;;0.30;;
59649;SDS011;46162;57.568;25.814;2023-03-13T10:15:31;9.43;;;0.30;;
59649;SDS011;46162;57.568;25.814;2023-03-13T10:18:20;4.75;;;0.55;;
59649;SDS011;46162;57.568;25.814;2023-03-13T10:20:51;4.10;;;0.10;;
59649;SDS011;46162;57.568;25.814;2023-03-13T10:23:25;4.13;;;0.10;;
59649;SDS011;46162;57.568;25.814;2023-03-13T10:26:04;5.25;;;0.40;;
59649;SDS011;46162;57.568;25.814;2023-03-13T10:28:33;6.50;;;0.50;;
59649;SDS011;46162;57.568;25.814;2023-03-13T10:31:04;5.25;;;0.20;;
59649;SDS011;46162;57.568;25.814;2023-03-13T10:33:41;3.40;;;0.15;;
59649;SDS011;46162;57.568;25.814;2023-03-13T10:36:11;6.30;;;0.20;;
59649;SDS011;46162;57.568;25.814;2023-03-13T10:41:19;6.43;;;0.15;;
59649;SDS011;46162;57.568;25.814;2023-03-13T10:43:57;2.42;;;0.10;;
59649;SDS011;46162;57.568;25.814;2023-03-13T10:46:30;9.20;;;0.10;;
59649;SDS011;46162;57.568;25.814;2023-03-13T10:49:01;7.95;;;0.20;;
59649;SDS011;46162;57.568;25.814;2023-03-13T10:51:34;5.93;;;0.20;;
59649;SDS011;46162;57.568;25.814;2023-03-13T10:54:13;8.70;;;0.10;;
59649;SDS011;46162;57.568;25.814;2023-03-13T10:56:44;6.50;;;0.10;;
59649;SDS011;46162;57.568;25.814;2023-03-13T10:59:20;5.60;;;0.30;;
59649;SDS011;46162;57.568;25.814;2023-03-13T11:01:59;7.07;;;0.30;;
59649;SDS011;46162;57.568;25.814;2023-03-13T11:04:29;6.25;;;0.28;;
59649;SDS011;46162;57.568;25.814;2023-03-13T11:07:00;7.68;;;0.20;;
59649;SDS011;46162;57.568;25.814;2023-03-13T11:09:34;7.10;;;0.32;;
59649;SDS011;46162;57.568;25.814;2023-03-13T11:12:04;6.28;;;0.40;;
59649;SDS011;46162;57.568;25.814;2023-03-13T11:14:47;3.03;;;0.15;;
59649;SDS011;46162;57.568;25.814;2023-03-13T11:17:27;4.28;;;0.20;;
59649;SDS011;46162;57.568;25.814;2023-03-13T11:20:05;4.00;;;0.20;;
59649;SDS011;46162;57.568;25.814;2023-03-13T11:22:45;5.40;;;0.20;;
59649;SDS011;46162;57.568;25.814;2023-03-13T11:25:22;6.30;;;0.35;;
59649;SDS011;46162;57.568;25.814;2023-03-13T11:27:59;4.10;;;0.15;;
59649;SDS011;46162;57.568;25.814;2023-03-13T11:30:50;2.67;;;0.10;;
59649;SDS011;46162;57.568;25.814;2023-03-13T11:33:32;4.93;;;0.10;;
59649;SDS011;46162;57.568;25.814;2023-03-13T11:36:08;4.22;;;0.20;;
59649;SDS011;46162;57.568;25.814;2023-03-13T11:38:43;4.03;;;0.35;;
59649;SDS011;46162;57.568;25.814;2023-03-13T11:41:20;4.40;;;0.32;;
59649;SDS011;46162;57.568;25.814;2023-03-13T11:46:40;3.63;;;0.10;;
59649;SDS011;46162;57.568;25.814;2023-03-13T11:49:40;3.50;;;0.10;;
59649;SDS011;46162;57.568;25.814;2023-03-13T11:52:32;4.13;;;0.20;;
59649;SDS011;46162;57.568;25.814;2023-03-13T11:55:24;4.00;;;0.20;;
59649;SDS011;46162;57.568;25.814;2023-03-13T11:58:04;4.07;;;0.10;;
59649;SDS011;46162;57.568;25.814;2023-03-13T12:00:46;3.83;;;0.10;;
59649;SDS011;46162;57.568;25.814;2023-03-13T12:03:21;4.97;;;0.30;;
59649;SDS011;46162;57.568;25.814;2023-03-13T12:06:03;3.63;;;0.15;;
59649;SDS011;46162;57.568;25.814;2023-03-13T12:08:54;5.28;;;0.20;;
59649;SDS011;46162;57.568;25.814;2023-03-13T12:11:31;5.90;;;0.20;;
59649;SDS011;46162;57.568;25.814;2023-03-13T12:14:04;6.13;;;0.20;;
59649;SDS011;46162;57.568;25.814;2023-03-13T12:16:40;5.18;;;0.25;;
59649;SDS011;46162;57.568;25.814;2023-03-13T12:19:16;5.68;;;0.38;;
59649;SDS011;46162;57.568;25.814;2023-03-13T12:21:53;6.10;;;0.17;;
59649;SDS011;46162;57.568;25.814;2023-03-13T12:24:29;4.22;;;0.10;;
59649;SDS011;46162;57.568;25.814;2023-03-13T12:27:04;3.63;;;0.10;;
59649;SDS011;46162;57.568;25.814;2023-03-13T12:29:45;3.42;;;0.10;;
59649;SDS011;46162;57.568;25.814;2023-03-13T12:32:22;3.13;;;0.20;;
59649;SDS011;46162;57.568;25.814;2023-03-13T12:34:58;2.83;;;0.10;;
59649;SDS011;46162;57.568;25.814;2023-03-13T12:37:44;3.53;;;0.10;;
59649;SDS011;46162;57.568;25.814;2023-03-13T12:40:28;9.73;;;0.20;;
59649;SDS011;46162;57.568;25.814;2023-03-13T12:43:04;5.07;;;0.10;;
59649;SDS011;46162;57.568;25.814;2023-03-13T12:45:48;4.13;;;0.35;;
59649;SDS011;46162;57.568;25.814;2023-03-13T12:48:41;6.00;;;0.20;;
59649;SDS011;46162;57.568;25.814;2023-03-13T12:51:37;3.50;;;0.20;;
59649;SDS011;46162;57.568;25.814;2023-03-13T12:54:41;4.38;;;0.40;;
59649;SDS011;46162;57.568;25.814;2023-03-13T13:04:20;8.55;;;0.10;;
59649;SDS011;46162;57.568;25.814;2023-03-13T13:07:24;2.88;;;0.10;;
59649;SDS011;46162;57.568;25.814;2023-03-13T13:10:28;4.03;;;0.35;;
59649;SDS011;46162;57.568;25.814;2023-03-13T13:16:29;3.97;;;0.20;;
59649;SDS011;46162;57.568;25.814;2023-03-13T13:22:53;5.68;;;0.10;;
59649;SDS011;46162;57.568;25.814;2023-03-13T13:25:35;3.30;;;0.10;;
59649;SDS011;46162;57.568;25.814;2023-03-13T13:28:22;3.87;;;0.10;;
59649;SDS011;46162;57.568;25.814;2023-03-13T13:37:49;2.33;;;0.10;;
59649;SDS011;46162;57.568;25.814;2023-03-13T13:40:43;4.43;;;0.30;;
59649;SDS011;46162;57.568;25.814;2023-03-13T13:43:40;4.00;;;0.20;;
59649;SDS011;46162;57.568;25.814;2023-03-13T13:46:30;2.47;;;0.10;;
59649;SDS011;46162;57.568;25.814;2023-03-13T13:49:12;5.35;;;0.22;;
59649;SDS011;46162;57.568;25.814;2023-03-13T13:55:39;4.47;;;0.10;;
59649;SDS011;46162;57.568;25.814;2023-03-13T13:58:34;4.32;;;0.10;;
59649;SDS011;46162;57.568;25.814;2023-03-13T14:01:30;3.38;;;0.20;;
59649;SDS011;46162;57.568;25.814;2023-03-13T14:04:18;1.73;;;0.10;;
59649;SDS011;46162;57.568;25.814;2023-03-13T14:07:27;2.35;;;0.10;;
59649;SDS011;46162;57.568;25.814;2023-03-13T14:13:31;2.95;;;0.20;;
59649;SDS011;46162;57.568;25.814;2023-03-13T14:16:49;4.20;;;0.10;;
59649;SDS011;46162;57.568;25.814;2023-03-13T14:19:41;3.38;;;0.30;;
59649;SDS011;46162;57.568;25.814;2023-03-13T14:22:28;4.20;;;0.20;;
59649;SDS011;46162;57.568;25.814;2023-03-13T14:29:03;3.60;;;0.10;;
59649;SDS011;46162;57.568;25.814;2023-03-13T14:31:51;3.15;;;0.20;;
59649;SDS011;46162;57.568;25.814;2023-03-13T14:35:04;4.22;;;0.30;;
59649;SDS011;46162;57.568;25.814;2023-03-13T14:38:22;3.47;;;0.40;;
59649;SDS011;46162;57.568;25.814;2023-03-13T14:41:52;4.55;;;0.22;;
59649;SDS011;46162;57.568;25.814;2023-03-13T14:44:26;4.95;;;0.20;;
59649;SDS011;46162;57.568;25.814;2023-03-13T14:50:13;3.90;;;0.22;;
59649;SDS011;46162;57.568;25.814;2023-03-13T14:56:10;3.20;;;0.20;;
59649;SDS011;46162;57.568;25.814;2023-03-13T14:58:47;8.07;;;0.30;;
59649;SDS011;46162;57.568;25.814;2023-03-13T15:01:56;3.92;;;0.17;;
59649;SDS011;46162;57.568;25.814;2023-03-13T15:04:54;3.08;;;0.20;;
59649;SDS011;46162;57.568;25.814;2023-03-13T15:07:33;4.05;;;0.13;;
59649;SDS011;46162;57.568;25.814;2023-03-13T15:10:25;2.65;;;0.10;;
59649;SDS011;46162;57.568;25.814;2023-03-13T15:13:32;4.30;;;0.15;;
59649;SDS011;46162;57.568;25.814;2023-03-13T15:16:17;3.47;;;0.10;;
59649;SDS011;46162;57.568;25.814;2023-03-13T15:22:39;4.88;;;0.20;;
59649;SDS011;46162;57.568;25.814;2023-03-13T15:25:28;4.43;;;0.20;;
59649;SDS011;46162;57.568;25.814;2023-03-13T15:28:07;2.90;;;0.20;;
59649;SDS011;46162;57.568;25.814;2023-03-13T15:30:51;2.70;;;0.10;;
59649;SDS011;46162;57.568;25.814;2023-03-13T15:33:43;5.32;;;0.30;;
59649;SDS011;46162;57.568;25.814;2023-03-13T15:36:20;2.45;;;0.10;;
59649;SDS011;46162;57.568;25.814;2023-03-13T15:38:54;4.80;;;0.30;;
59649;SDS011;46162;57.568;25.814;2023-03-13T15:41:44;3.08;;;0.28;;
59649;SDS011;46162;57.568;25.814;2023-03-13T15:44:21;5.53;;;0.40;;
59649;SDS011;46162;57.568;25.814;2023-03-13T15:47:08;5.25;;;0.98;;
59649;SDS011;46162;57.568;25.814;2023-03-13T15:49:41;4.47;;;0.50;;
59649;SDS011;46162;57.568;25.814;2023-03-13T15:52:16;4.45;;;0.30;;
59649;SDS011;46162;57.568;25.814;2023-03-13T15:54:51;5.63;;;0.60;;
59649;SDS011;46162;57.568;25.814;2023-03-13T15:57:31;6.22;;;0.50;;
59649;SDS011;46162;57.568;25.814;2023-03-13T16:00:05;7.05;;;0.60;;
59649;SDS011;46162;57.568;25.814;2023-03-13T16:06:05;6.57;;;0.60;;
59649;SDS011;46162;57.568;25.814;2023-03-13T16:09:22;6.43;;;0.52;;
59649;SDS011;46162;57.568;25.814;2023-03-13T16:11:58;9.32;;;1.08;;
59649;SDS011;46162;57.568;25.814;2023-03-13T16:14:58;4.57;;;0.85;;
59649;SDS011;46162;57.568;25.814;2023-03-13T16:17:29;6.35;;;0.73;;
59649;SDS011;46162;57.568;25.814;2023-03-13T16:20:00;6.38;;;0.73;;
59649;SDS011;46162;57.568;25.814;2023-03-13T16:22:37;7.30;;;0.70;;
59649;SDS011;46162;57.568;25.814;2023-03-13T16:25:08;7.38;;;0.98;;
59649;SDS011;46162;57.568;25.814;2023-03-13T16:27:49;4.90;;;0.82;;
59649;SDS011;46162;57.568;25.814;2023-03-13T16:30:34;8.65;;;1.17;;
59649;SDS011;46162;57.568;25.814;2023-03-13T16:33:07;8.80;;;0.95;;
59649;SDS011;46162;57.568;25.814;2023-03-13T16:35:40;6.07;;;0.88;;
59649;SDS011;46162;57.568;25.814;2023-03-13T16:38:13;6.97;;;0.70;;